Time;durP1;ratioP1;P1;durP2;ratioP2;P2;SDS_P1;SDS_P2;PMS_P1;PMS_P2;Temp;Humidity;BMP_temperature;BMP_pressure;BME280_temperature;BME280_humidity;BME280_pressure;Samples;Min_cycle;Max_cycle;Signal;HPM_P1;HPM_P2
2021/09/14 00:00:21;;;;;;;8.90;5.50;;;;;;;16.87;71.12;101782.00;5067626;28;20567;-49
2021/09/14 00:02:48;;;;;;;11.02;5.38;;;;;;;17.01;70.91;101780.28;5070230;28;20032;-48
2021/09/14 00:05:13;;;;;;;10.15;5.35;;;;;;;17.03;70.41;101782.03;5069566;28;20479;-47
2021/09/14 00:07:39;;;;;;;8.90;5.03;;;;;;;17.07;70.50;101785.56;5068950;28;20074;-47
2021/09/14 00:10:06;;;;;;;9.85;5.03;;;;;;;16.98;70.64;101780.25;5067907;28;20019;-48
2021/09/14 00:12:31;;;;;;;11.40;5.63;;;;;;;17.02;70.48;101772.34;5065943;28;20047;-50
2021/09/14 00:14:56;;;;;;;8.52;5.30;;;;;;;17.04;70.31;101778.53;5065228;28;20032;-48
2021/09/14 00:17:22;;;;;;;9.13;5.32;;;;;;;17.09;70.20;101775.88;5063815;28;20091;-47
2021/09/14 00:19:47;;;;;;;8.07;5.35;;;;;;;17.10;70.32;101774.13;5068062;28;20408;-48
2021/09/14 00:22:13;;;;;;;9.85;5.38;;;;;;;17.14;70.30;101778.53;5066114;28;20028;-47
2021/09/14 00:24:40;;;;;;;12.07;5.40;;;;;;;17.10;70.11;101776.75;5067188;28;20486;-49
2021/09/14 00:27:06;;;;;;;10.20;5.47;;;;;;;17.17;70.00;101778.53;5072976;28;20464;-49
2021/09/14 00:29:31;;;;;;;9.80;5.90;;;;;;;17.17;69.84;101778.53;5067218;28;20028;-48
2021/09/14 00:31:56;;;;;;;10.25;5.60;;;;;;;17.16;69.96;101774.13;5070879;28;20447;-48
2021/09/14 00:34:22;;;;;;;8.40;5.30;;;;;;;17.30;69.40;101777.66;5064569;28;20043;-50
2021/09/14 00:36:47;;;;;;;12.25;5.60;;;;;;;17.28;69.69;101788.19;5070402;28;20058;-51
2021/09/14 00:39:12;;;;;;;14.43;5.30;;;;;;;17.34;69.26;101792.59;5065853;28;20032;-47
2021/09/14 00:41:38;;;;;;;13.75;5.65;;;;;;;17.32;69.57;101776.75;5068072;28;20036;-49
2021/09/14 00:44:03;;;;;;;12.40;5.80;;;;;;;17.39;69.08;101777.66;5068000;28;20720;-50
2021/09/14 00:46:29;;;;;;;10.48;5.90;;;;;;;17.19;69.65;101782.06;5061247;28;20058;-48
2021/09/14 00:48:55;;;;;;;9.60;5.47;;;;;;;17.35;69.06;101774.16;5049896;28;20458;-50
2021/09/14 00:51:21;;;;;;;11.10;5.63;;;;;;;17.38;69.02;101779.41;5072734;28;20054;-48
2021/09/14 00:53:47;;;;;;;10.63;5.85;;;;;;;17.36;68.95;101775.03;5063953;28;20032;-47
2021/09/14 00:56:14;;;;;;;9.75;5.80;;;;;;;17.39;68.91;101773.25;5069903;28;20032;-48
2021/09/14 00:58:40;;;;;;;9.18;5.60;;;;;;;17.37;68.97;101775.03;5065452;28;20053;-50
2021/09/14 01:01:05;;;;;;;9.68;5.45;;;;;;;17.41;69.07;101773.25;5051440;28;20446;-47
2021/09/14 01:03:30;;;;;;;10.13;5.93;;;;;;;17.47;68.72;101775.00;5051282;28;20558;-47
2021/09/14 01:05:56;;;;;;;12.55;6.20;;;;;;;17.47;68.61;101767.97;5068885;28;20115;-47
2021/09/14 01:08:21;;;;;;;12.15;5.70;;;;;;;17.46;69.08;101763.59;5070732;28;20032;-50
2021/09/14 01:10:47;;;;;;;11.15;5.75;;;;;;;17.54;68.72;101760.94;5064964;28;20213;-51
2021/09/14 01:13:12;;;;;;;10.15;5.60;;;;;;;17.46;68.65;101755.69;5051862;28;20016;-46
2021/09/14 01:15:37;;;;;;;10.50;5.90;;;;;;;17.39;69.01;101760.06;5062089;28;20166;-47
2021/09/14 01:18:04;;;;;;;11.57;5.97;;;;;;;17.29;68.96;101747.78;5066825;28;20494;-48
2021/09/14 01:20:29;;;;;;;11.40;5.65;;;;;;;17.34;69.34;101750.41;5067133;28;20077;-50
2021/09/14 01:22:55;;;;;;;11.68;5.80;;;;;;;17.37;68.92;101746.03;5068627;28;20028;-47
2021/09/14 01:25:22;;;;;;;8.50;5.63;;;;;;;17.39;68.76;101748.66;5070394;28;20491;-50
2021/09/14 01:27:48;;;;;;;9.75;5.68;;;;;;;17.37;68.92;101740.78;5053918;28;20032;-48
2021/09/14 01:30:18;;;;;;;8.23;5.63;;;;;;;17.27;69.66;101744.25;5049322;28;20024;-48
2021/09/14 01:32:45;;;;;;;11.00;5.57;;;;;;;17.39;68.88;101740.75;5069437;28;20043;-50
2021/09/14 01:35:15;;;;;;;11.30;6.05;;;;;;;17.35;68.92;101733.72;5064619;28;20556;-47
2021/09/14 01:37:41;;;;;;;13.55;6.03;;;;;;;17.35;68.79;101737.25;5068261;28;20476;-49
2021/09/14 01:40:06;;;;;;;13.20;5.95;;;;;;;17.29;68.97;101739.88;5059616;28;20051;-48
2021/09/14 01:42:32;;;;;;;10.20;5.90;;;;;;;17.29;68.67;101736.38;5051523;28;20502;-48
2021/09/14 01:44:57;;;;;;;9.13;6.03;;;;;;;17.09;69.63;101738.13;5064860;28;20328;-47
2021/09/14 01:47:23;;;;;;;10.80;6.38;;;;;;;17.22;69.41;101734.59;5050798;28;20512;-46
2021/09/14 01:49:48;;;;;;;10.43;6.00;;;;;;;17.10;69.74;101734.59;5066997;28;20024;-48
2021/09/14 01:52:13;;;;;;;13.02;6.22;;;;;;;17.16;69.25;101724.94;5050018;28;20062;-46
2021/09/14 01:54:39;;;;;;;11.95;6.18;;;;;;;17.18;69.38;101730.22;5049608;28;20242;-49
2021/09/14 01:57:05;;;;;;;14.55;6.35;;;;;;;17.17;69.66;101724.06;5070896;28;20098;-46
2021/09/14 01:59:32;;;;;;;12.90;6.28;;;;;;;17.09;69.67;101730.22;5067248;28;20194;-50
2021/09/14 02:02:13;;;;;;;9.45;5.95;;;;;;;17.13;69.66;101724.97;5067592;28;20547;-48
2021/09/14 02:04:54;;;;;;;11.95;6.70;;;;;;;17.09;69.96;101724.94;5061152;28;20028;-47
2021/09/14 02:07:48;;;;;;;11.50;6.20;;;;;;;17.09;69.74;101722.31;5063181;28;20024;-47
2021/09/14 02:45:00;;;;;;;14.05;7.82;;;;;;;16.61;71.51;101688.03;5066370;28;20032;-50
2021/09/14 03:01:10;;;;;;;20.45;8.70;;;;;;;16.42;71.92;101688.84;5069347;28;20821;-48
2021/09/14 03:03:37;;;;;;;15.30;8.80;;;;;;;16.36;71.88;101680.03;5065767;28;20040;-49
2021/09/14 03:06:03;;;;;;;15.43;8.35;;;;;;;16.39;72.17;101680.06;5072133;28;20020;-47
2021/09/14 03:08:28;;;;;;;15.93;8.45;;;;;;;16.40;71.72;101676.56;5070060;28;20377;-47
2021/09/14 03:10:53;;;;;;;16.30;8.90;;;;;;;16.30;72.35;101670.38;5068530;28;20451;-47
2021/09/14 03:13:19;;;;;;;17.00;9.70;;;;;;;16.23;72.42;101666.84;5072427;28;20111;-46
2021/09/14 03:15:44;;;;;;;18.38;9.52;;;;;;;16.26;72.42;101660.75;5064750;28;20031;-49
2021/09/14 03:18:10;;;;;;;17.10;9.50;;;;;;;16.24;72.33;101650.19;5053996;28;20280;-51
2021/09/14 03:20:35;;;;;;;17.15;9.05;;;;;;;16.23;72.32;101650.19;5068144;28;20426;-50
2021/09/14 03:23:01;;;;;;;15.13;9.18;;;;;;;16.28;72.04;101653.75;5070721;28;20047;-51
2021/09/14 03:25:26;;;;;;;17.45;8.98;;;;;;;16.21;72.58;101646.69;5067921;28;20847;-47
2021/09/14 03:27:51;;;;;;;18.23;9.18;;;;;;;16.14;72.88;101632.66;5048627;28;20054;-48
2021/09/14 03:30:17;;;;;;;14.82;8.70;;;;;;;16.12;72.65;101637.00;5069329;28;20058;-48
2021/09/14 03:32:42;;;;;;;17.05;9.35;;;;;;;16.14;72.72;101632.66;5067740;28;20087;-49
2021/09/14 03:35:08;;;;;;;16.08;9.30;;;;;;;16.14;72.51;101635.28;5068902;28;20059;-47
2021/09/14 03:37:33;;;;;;;16.63;8.90;;;;;;;16.13;72.34;101630.88;5067521;28;20032;-48
2021/09/14 03:39:59;;;;;;;20.20;10.05;;;;;;;16.06;72.82;101636.13;5067243;28;20121;-50
2021/09/14 03:42:24;;;;;;;17.85;9.52;;;;;;;15.99;72.83;101629.06;5073039;28;20032;-48
2021/09/14 03:44:50;;;;;;;15.55;8.90;;;;;;;15.99;72.69;101629.06;5065051;28;20464;-49
2021/09/14 03:47:15;;;;;;;18.33;9.70;;;;;;;16.03;72.51;101623.84;5065688;28;20482;-47
2021/09/14 03:49:40;;;;;;;17.05;9.43;;;;;;;15.95;73.00;101630.84;5067609;28;20035;-51
2021/09/14 03:52:06;;;;;;;22.55;10.07;;;;;;;15.93;73.12;101622.03;5068393;28;21057;-50
2021/09/14 03:54:31;;;;;;;19.90;9.15;;;;;;;16.01;72.77;101630.84;5067735;28;20046;-48
2021/09/14 03:56:57;;;;;;;19.40;10.27;;;;;;;15.98;72.92;101630.81;5071223;28;20116;-48
2021/09/14 03:59:22;;;;;;;17.80;9.80;;;;;;;15.99;72.73;101629.97;5065006;28;20067;-49
2021/09/14 04:01:52;;;;;;;18.05;9.57;;;;;;;15.94;72.80;101629.06;5069638;28;20119;-48
2021/09/14 04:04:22;;;;;;;20.27;9.93;;;;;;;15.89;73.06;101616.78;5069260;28;20047;-50
2021/09/14 04:09:31;;;;;;;17.80;9.77;;;;;;;15.83;73.13;101626.41;5063096;28;20178;-49
2021/09/14 04:11:57;;;;;;;20.77;10.02;;;;;;;15.83;73.24;101628.16;5068961;28;20036;-48
2021/09/14 04:14:25;;;;;;;18.73;10.20;;;;;;;15.83;73.23;101628.16;5064310;28;20043;-51
2021/09/14 04:16:50;;;;;;;19.70;9.57;;;;;;;15.82;73.03;101629.91;5070556;28;20039;-50
2021/09/14 04:19:15;;;;;;;22.52;9.38;;;;;;;15.79;73.02;101629.91;5066745;28;20028;-49
2021/09/14 04:21:41;;;;;;;17.90;9.65;;;;;;;15.76;73.24;101639.50;5064162;28;20067;-51
2021/09/14 04:24:06;;;;;;;19.05;10.10;;;;;;;15.73;73.24;101636.88;5070165;28;20131;-50
2021/09/14 04:26:31;;;;;;;19.83;10.10;;;;;;;15.74;73.03;101636.00;5068274;28;20035;-50
2021/09/14 04:28:57;;;;;;;18.88;9.82;;;;;;;15.76;72.99;101626.38;5070874;28;20367;-50
2021/09/14 04:31:22;;;;;;;19.80;11.02;;;;;;;15.70;73.12;101629.84;5062090;28;20028;-49
2021/09/14 04:33:48;;;;;;;18.27;9.93;;;;;;;15.73;73.09;101623.75;5050177;28;20028;-51
2021/09/14 04:36:13;;;;;;;19.42;10.23;;;;;;;15.68;73.28;101610.56;5068612;28;20490;-49
2021/09/14 04:38:41;;;;;;;17.58;10.25;;;;;;;15.69;73.37;101619.31;5064092;28;20228;-48
2021/09/14 04:41:07;;;;;;;21.33;10.65;;;;;;;15.74;72.92;101621.09;5066428;28;20131;-48
2021/09/14 04:43:32;;;;;;;20.55;10.23;;;;;;;15.69;72.99;101619.31;5067827;28;20024;-50
2021/09/14 04:45:58;;;;;;;17.15;9.85;;;;;;;15.65;73.11;101617.56;5063298;28;20024;-49
2021/09/14 04:48:23;;;;;;;21.27;9.93;;;;;;;15.67;73.20;101618.47;5063523;28;20057;-49
2021/09/14 04:50:48;;;;;;;21.00;10.75;;;;;;;15.63;73.35;101609.66;5066179;28;20153;-50
2021/09/14 04:53:14;;;;;;;18.73;10.77;;;;;;;15.56;73.54;101615.75;5067807;28;20124;-54
2021/09/14 04:55:39;;;;;;;20.92;10.68;;;;;;;15.59;73.19;101614.91;5061855;28;20090;-49
2021/09/14 04:58:04;;;;;;;22.10;10.65;;;;;;;15.55;73.70;101614.03;5064981;28;20821;-51
2021/09/14 05:00:30;;;;;;;21.45;10.77;;;;;;;15.56;73.31;101615.75;5060020;28;20051;-48
2021/09/14 05:02:55;;;;;;;19.95;10.93;;;;;;;15.55;73.74;101610.53;5067027;28;20376;-48
2021/09/14 05:05:21;;;;;;;19.10;10.73;;;;;;;15.62;73.63;101614.91;5065330;28;20043;-48
2021/09/14 05:07:46;;;;;;;21.67;10.77;;;;;;;15.68;73.25;101609.69;5066778;28;20465;-48
2021/09/14 05:10:12;;;;;;;19.67;11.13;;;;;;;15.70;73.30;101613.19;5064286;28;20059;-48
2021/09/14 05:12:37;;;;;;;21.35;10.38;;;;;;;15.77;73.17;101607.09;5058791;28;21237;-48
2021/09/14 05:15:03;;;;;;;20.83;10.98;;;;;;;15.75;73.04;101616.72;5069015;28;20034;-47
2021/09/14 05:17:29;;;;;;;19.98;11.45;;;;;;;15.75;72.78;101619.34;5066132;28;20472;-49
2021/09/14 05:19:54;;;;;;;19.92;10.70;;;;;;;15.81;72.63;101615.00;5070506;28;20314;-47
2021/09/14 05:22:22;;;;;;;22.55;11.00;;;;;;;15.87;72.47;101618.50;5066455;28;20136;-48
2021/09/14 05:24:47;;;;;;;20.27;10.70;;;;;;;15.91;72.09;101618.56;5066536;28;20039;-51
2021/09/14 05:27:13;;;;;;;21.30;10.80;;;;;;;15.88;72.32;101623.78;5070524;28;20028;-48
2021/09/14 05:29:38;;;;;;;18.55;11.13;;;;;;;15.86;72.21;101617.63;5064609;28;20039;-52
2021/09/14 05:32:04;;;;;;;19.42;10.23;;;;;;;15.96;71.78;101608.94;5068569;28;20167;-50
2021/09/14 05:34:31;;;;;;;20.27;10.73;;;;;;;16.06;71.51;101608.06;5052774;28;20060;-48
2021/09/14 05:36:57;;;;;;;18.02;10.77;;;;;;;16.08;71.41;101602.81;5060288;28;20028;-48
2021/09/14 05:39:22;;;;;;;18.38;10.07;;;;;;;16.02;71.64;101595.78;5068599;28;20030;-50
2021/09/14 05:41:48;;;;;;;19.13;10.48;;;;;;;16.07;71.32;101590.53;5069167;28;20030;-48
2021/09/14 05:44:13;;;;;;;19.15;10.68;;;;;;;16.17;70.84;101582.66;5067892;28;20039;-48
2021/09/14 05:46:38;;;;;;;17.33;10.75;;;;;;;16.27;70.30;101585.31;5063628;28;20032;-49
2021/09/14 05:49:04;;;;;;;18.65;10.40;;;;;;;16.49;69.39;101576.56;5069341;28;20040;-49
2021/09/14 05:51:30;;;;;;;22.58;9.98;;;;;;;16.57;69.16;101575.69;5065724;28;20024;-49
2021/09/14 05:53:55;;;;;;;17.10;10.15;;;;;;;16.48;69.34;101578.31;5065569;28;20034;-48
2021/09/14 05:56:20;;;;;;;19.27;10.60;;;;;;;16.61;68.78;101577.47;5066929;28;20276;-48
2021/09/14 05:58:46;;;;;;;17.35;10.23;;;;;;;16.73;68.85;101576.59;5051116;28;20683;-50
2021/09/14 06:01:13;;;;;;;19.63;10.55;;;;;;;16.77;68.43;101577.47;5065473;28;20663;-49
2021/09/14 06:03:38;;;;;;;16.73;9.98;;;;;;;16.86;68.42;101572.19;5066348;28;20484;-47
2021/09/14 06:06:07;;;;;;;19.77;10.60;;;;;;;16.78;68.56;101577.44;5066576;28;20043;-47
2021/09/14 06:08:32;;;;;;;17.05;9.98;;;;;;;16.82;68.49;101576.59;5071240;28;20088;-50
2021/09/14 06:10:58;;;;;;;21.13;10.75;;;;;;;16.67;69.26;101573.06;5072287;28;20024;-50
2021/09/14 06:13:23;;;;;;;17.30;10.68;;;;;;;16.67;68.50;101571.31;5070584;28;20107;-52
2021/09/14 06:15:48;;;;;;;18.33;10.00;;;;;;;16.97;67.55;101570.41;5070147;28;20348;-49
2021/09/14 06:18:14;;;;;;;19.50;10.10;;;;;;;17.09;67.07;101564.22;5068523;28;20089;-48
2021/09/14 06:20:40;;;;;;;19.83;9.68;;;;;;;17.14;67.15;101579.13;5070717;28;20040;-48
2021/09/14 06:23:05;;;;;;;18.55;10.68;;;;;;;17.04;67.26;101572.16;5051823;28;20243;-47
2021/09/14 06:25:30;;;;;;;16.05;9.82;;;;;;;17.03;67.40;101576.53;5071100;28;20349;-51
2021/09/14 06:27:56;;;;;;;20.10;10.23;;;;;;;17.03;67.55;101571.28;5076624;28;20111;-49
2021/09/14 06:30:21;;;;;;;17.58;10.38;;;;;;;17.12;67.15;101578.28;5070570;28;20132;-47
2021/09/14 06:32:46;;;;;;;16.90;10.85;;;;;;;17.12;67.21;101582.69;5072695;28;20028;-50
2021/09/14 06:35:12;;;;;;;18.10;10.35;;;;;;;17.14;67.24;101579.13;5067456;28;20032;-48
2021/09/14 06:37:37;;;;;;;15.98;9.90;;;;;;;17.30;66.93;101570.34;5051336;28;20107;-51
2021/09/14 06:40:04;;;;;;;15.68;10.15;;;;;;;17.81;65.80;101571.00;5066047;28;20355;-48
2021/09/14 06:42:30;;;;;;;15.40;9.93;;;;;;;18.44;64.30;101588.22;5071515;28;20028;-50
2021/09/14 06:44:58;;;;;;;15.38;9.95;;;;;;;19.10;62.12;101585.00;5074330;28;20023;-50
2021/09/14 06:47:24;;;;;;;15.80;9.77;;;;;;;19.58;60.04;101586.28;5070525;28;20377;-52
2021/09/14 06:49:50;;;;;;;15.75;9.98;;;;;;;19.88;58.50;101577.94;5068535;28;20039;-50
2021/09/14 06:52:15;;;;;;;14.43;8.90;;;;;;;20.05;58.80;101569.75;5056864;28;20520;-49
2021/09/14 06:54:41;;;;;;;15.95;10.02;;;;;;;20.31;56.96;101558.78;5070224;28;20403;-50
2021/09/14 06:57:06;;;;;;;13.32;9.77;;;;;;;19.91;58.49;101556.72;5069448;28;20028;-50
2021/09/14 06:59:31;;;;;;;15.90;9.60;;;;;;;20.06;57.62;101560.91;5065056;28;20161;-52
2021/09/14 07:01:58;;;;;;;18.00;10.07;;;;;;;19.80;58.57;101564.81;5053792;28;20043;-48
2021/09/14 07:04:24;;;;;;;14.15;10.20;;;;;;;19.63;59.88;101563.28;5055856;28;20396;-50
2021/09/14 07:06:50;;;;;;;15.63;10.07;;;;;;;19.19;60.24;101564.66;5061597;28;20313;-50
2021/09/14 07:09:17;;;;;;;14.70;9.98;;;;;;;19.45;59.67;101553.78;5055411;28;20032;-52
2021/09/14 07:11:43;;;;;;;17.00;10.65;;;;;;;19.73;58.27;101549.91;5065276;28;20031;-50
2021/09/14 07:14:08;;;;;;;16.05;9.77;;;;;;;20.38;57.54;101548.06;5066247;28;20566;-51
2021/09/14 07:16:33;;;;;;;16.42;10.43;;;;;;;20.86;56.14;101551.63;5052979;28;20516;-48
2021/09/14 07:18:59;;;;;;;17.50;10.52;;;;;;;21.10;55.40;101557.41;5065547;28;20343;-50
2021/09/14 07:21:24;;;;;;;14.88;10.82;;;;;;;20.74;56.04;101558.97;5069888;28;20111;-50
2021/09/14 07:23:50;;;;;;;16.33;9.98;;;;;;;21.15;55.21;101552.88;5069826;28;20325;-48
2021/09/14 07:26:15;;;;;;;15.05;10.40;;;;;;;21.74;53.89;101562.31;5070584;28;20312;-50
2021/09/14 07:28:41;;;;;;;16.35;10.40;;;;;;;21.94;53.56;101564.53;5065711;28;20032;-51
2021/09/14 07:31:08;;;;;;;14.77;10.23;;;;;;;22.14;53.25;101564.97;5070701;28;20077;-48
2021/09/14 07:33:33;;;;;;;15.95;10.55;;;;;;;22.36;51.96;101552.94;5068384;28;20466;-51
2021/09/14 07:35:58;;;;;;;15.57;11.00;;;;;;;22.24;50.86;101561.19;5065151;28;20264;-49
2021/09/14 07:38:24;;;;;;;14.63;10.90;;;;;;;21.66;52.94;101551.84;5070633;28;20289;-52
2021/09/14 07:40:49;;;;;;;15.02;11.10;;;;;;;21.44;55.70;101555.88;5068141;28;20015;-49
2021/09/14 07:43:14;;;;;;;16.98;11.70;;;;;;;21.59;54.73;101554.69;5065415;28;20019;-49
2021/09/14 07:45:40;;;;;;;18.10;11.95;;;;;;;20.81;55.81;101552.63;5069852;28;20136;-47
2021/09/14 07:48:05;;;;;;;19.15;12.77;;;;;;;20.70;57.03;101558.13;5068624;28;20047;-52
2021/09/14 07:50:30;;;;;;;18.67;12.02;;;;;;;21.02;56.20;101552.25;5068285;28;20024;-53
2021/09/14 07:52:56;;;;;;;18.92;12.90;;;;;;;20.94;55.89;101556.81;5067618;28;20028;-49
2021/09/14 07:55:21;;;;;;;19.67;13.32;;;;;;;20.97;57.15;101546.16;5064976;28;20052;-49
2021/09/14 07:57:47;;;;;;;21.42;13.27;;;;;;;21.01;56.75;101545.19;5064693;28;20032;-52
2021/09/14 08:00:12;;;;;;;19.92;13.52;;;;;;;21.05;56.96;101545.09;5065649;28;20039;-51
2021/09/14 08:02:38;;;;;;;19.92;13.10;;;;;;;20.83;56.97;101550.84;5055569;28;20036;-50
2021/09/14 08:05:05;;;;;;;21.70;13.55;;;;;;;20.76;58.00;101547.41;5069685;28;20030;-47
2021/09/14 08:07:31;;;;;;;21.13;13.93;;;;;;;20.44;58.74;101542.66;5053966;28;20028;-51
2021/09/14 08:09:56;;;;;;;21.83;13.55;;;;;;;20.74;57.69;101551.03;5049509;28;20046;-54
2021/09/14 08:12:21;;;;;;;20.05;14.40;;;;;;;20.90;57.17;101549.81;5067260;28;20126;-53
2021/09/14 08:14:47;;;;;;;20.33;14.60;;;;;;;21.25;56.88;101557.13;5065667;28;20036;-50
2021/09/14 08:17:15;;;;;;;20.83;14.63;;;;;;;21.62;55.56;101549.28;5066480;28;20316;-53
2021/09/14 08:19:42;;;;;;;21.58;14.80;;;;;;;21.52;56.63;101553.06;5070868;28;20605;-50
2021/09/14 08:22:09;;;;;;;24.55;15.35;;;;;;;21.24;55.54;101548.31;5067073;28;20033;-52
2021/09/14 08:24:34;;;;;;;22.80;15.63;;;;;;;21.37;55.97;101551.59;5067609;28;20346;-55
2021/09/14 08:27:00;;;;;;;23.35;14.88;;;;;;;21.44;56.09;101545.25;5062027;28;20012;-52
2021/09/14 08:29:25;;;;;;;20.15;14.90;;;;;;;21.57;55.92;101541.44;5062470;28;20365;-54
2021/09/14 08:31:50;;;;;;;25.08;15.52;;;;;;;21.70;56.60;101540.28;5066034;28;20383;-49
2021/09/14 08:34:16;;;;;;;24.88;16.48;;;;;;;21.41;56.75;101545.31;5065891;28;20057;-50
2021/09/14 08:36:41;;;;;;;24.50;15.98;;;;;;;21.35;56.79;101559.56;5065260;28;20035;-49
2021/09/14 08:39:07;;;;;;;25.77;15.38;;;;;;;21.53;57.33;101562.78;5047930;28;20469;-50
2021/09/14 08:41:33;;;;;;;28.15;16.08;;;;;;;21.69;56.42;101553.56;5067899;28;20388;-48
2021/09/14 08:43:59;;;;;;;25.33;16.58;;;;;;;21.83;55.68;101552.34;5049923;28;20024;-49
2021/09/14 08:46:24;;;;;;;21.17;15.27;;;;;;;22.07;55.99;101558.94;5066861;28;20081;-50
2021/09/14 08:48:50;;;;;;;21.55;15.48;;;;;;;22.15;55.71;101564.03;5067463;28;21323;-53
2021/09/14 08:51:16;;;;;;;22.83;15.55;;;;;;;22.36;55.54;101552.06;5046585;28;20035;-49
2021/09/14 08:53:42;;;;;;;20.27;14.55;;;;;;;22.58;53.35;101554.13;5069673;28;20452;-49
2021/09/14 08:56:08;;;;;;;24.23;14.90;;;;;;;22.93;54.17;101555.03;5067756;28;20092;-47
2021/09/14 08:58:34;;;;;;;20.75;15.60;;;;;;;22.49;54.01;101551.72;5050422;28;20024;-47
2021/09/14 09:01:00;;;;;;;28.30;15.63;;;;;;;22.78;54.21;101547.47;5065636;28;20056;-49
2021/09/14 09:03:28;;;;;;;23.80;15.65;;;;;;;22.92;52.30;101543.53;5067774;28;20384;-49
2021/09/14 09:05:54;;;;;;;21.38;15.35;;;;;;;22.92;52.80;101535.56;5033011;28;20451;-52
2021/09/14 09:08:28;;;;;;;21.67;15.55;;;;;;;22.82;52.47;101534.03;5066467;28;20028;-50
2021/09/14 09:11:03;;;;;;;22.83;14.68;;;;;;;22.78;53.91;101550.13;5049226;28;20147;-54
2021/09/14 09:13:31;;;;;;;19.95;14.88;;;;;;;22.96;53.80;101546.97;5047732;28;20024;-49
2021/09/14 09:15:56;;;;;;;23.25;15.15;;;;;;;22.73;53.14;101544.06;5065424;28;20036;-51
2021/09/14 09:18:21;;;;;;;20.35;15.00;;;;;;;23.01;54.05;101545.06;5069881;28;20965;-49
2021/09/14 09:20:48;;;;;;;22.55;15.63;;;;;;;22.77;53.20;101553.69;5067640;28;20193;-56
2021/09/14 09:23:22;;;;;;;23.35;16.05;;;;;;;22.51;54.02;101549.88;5058206;28;20028;-52
2021/09/14 09:25:48;;;;;;;23.80;16.10;;;;;;;22.42;53.78;101547.47;5064559;28;20035;-50
2021/09/14 09:28:22;;;;;;;21.42;15.15;;;;;;;22.64;54.36;101522.06;5065429;28;20534;-52
2021/09/14 09:30:55;;;;;;;22.05;15.05;;;;;;;23.02;52.41;101523.75;5052742;28;20145;-51
2021/09/14 09:33:26;;;;;;;;;;;;;;;23.20;52.98;101526.78;5065960;28;20182;-50
2021/09/14 09:36:00;;;;;;;22.92;15.55;;;;;;;23.05;52.56;101528.13;5032500;28;20687;-51
2021/09/14 09:38:25;;;;;;;23.42;16.05;;;;;;;23.30;52.71;101522.94;5062423;28;20032;-50
2021/09/14 09:40:51;;;;;;;25.30;15.95;;;;;;;23.35;51.33;101524.59;5049553;28;20040;-51
2021/09/14 09:43:26;;;;;;;22.67;16.02;;;;;;;23.42;51.38;101526.13;5064381;28;20020;-54
2021/09/14 09:45:52;;;;;;;20.33;14.82;;;;;;;23.35;53.07;101521.03;5045738;28;20036;-53
2021/09/14 09:48:17;;;;;;;23.13;15.57;;;;;;;23.47;52.84;101530.50;5065683;28;20105;-49
2021/09/14 09:50:43;;;;;;;21.33;15.25;;;;;;;23.27;52.99;101515.06;5067442;28;20276;-53
2021/09/14 09:53:10;;;;;;;24.00;15.38;;;;;;;23.50;51.95;101531.25;5065576;28;20008;-50
2021/09/14 09:55:36;;;;;;;23.90;16.35;;;;;;;23.52;52.40;101521.44;5066791;28;20103;-49
2021/09/14 09:58:05;;;;;;;23.02;15.27;;;;;;;23.71;52.58;101519.97;5049608;28;20436;-52
2021/09/14 10:00:33;;;;;;;20.95;15.18;;;;;;;23.86;51.33;101511.50;5068368;28;20044;-52
2021/09/14 10:03:01;;;;;;;20.08;15.13;;;;;;;23.71;51.70;101511.13;5066496;28;20274;-49
2021/09/14 10:05:29;;;;;;;19.52;15.25;;;;;;;23.83;50.64;101511.63;5046232;28;20032;-49
2021/09/14 10:07:56;;;;;;;22.52;15.68;;;;;;;;;;5049065;28;20032;-49
2021/09/14 10:10:32;;;;;;;19.13;14.75;;;;;;;23.94;51.23;101508.59;5067969;28;20346;-51
2021/09/14 10:13:02;;;;;;;24.15;15.30;;;;;;;23.89;51.70;101501.69;5061803;28;20115;-48
2021/09/14 10:15:39;;;;;;;20.33;14.05;;;;;;;24.21;51.46;101506.88;5063800;28;20807;-49
2021/09/14 10:18:05;;;;;;;22.33;15.15;;;;;;;23.68;51.63;101509.41;5066502;28;20043;-47
2021/09/14 10:20:40;;;;;;;20.45;15.20;;;;;;;24.05;51.97;101510.91;5063364;28;20032;-49
2021/09/14 10:23:18;;;;;;;20.20;15.02;;;;;;;24.07;50.29;101501.09;5030360;28;20642;-52
2021/09/14 10:25:50;;;;;;;20.35;14.95;;;;;;;24.09;50.47;101499.25;5061527;28;20102;-51
2021/09/14 10:28:16;;;;;;;23.17;14.85;;;;;;;24.11;51.09;101503.59;5061662;28;20028;-51
2021/09/14 10:30:44;;;;;;;20.45;14.80;;;;;;;24.37;50.64;101500.09;5066564;28;20082;-52
2021/09/14 10:33:28;;;;;;;19.63;14.60;;;;;;;23.95;52.41;101502.34;5064542;28;20457;-52
2021/09/14 10:35:53;;;;;;;20.63;13.95;;;;;;;24.25;50.63;101495.19;5049097;28;20067;-50
2021/09/14 10:38:20;;;;;;;25.23;15.02;;;;;;;24.38;49.79;101500.97;5046275;28;20147;-51
2021/09/14 10:40:55;;;;;;;21.33;14.15;;;;;;;24.22;50.00;101501.47;5052267;28;20032;-48
2021/09/14 10:43:25;;;;;;;20.77;14.40;;;;;;;24.10;51.24;101493.84;5068679;28;20027;-49
2021/09/14 10:45:51;;;;;;;19.35;13.77;;;;;;;23.96;52.13;101495.25;5065380;28;20489;-51
2021/09/14 10:48:26;;;;;;;21.77;14.55;;;;;;;23.80;51.25;101490.38;5069490;28;20417;-49
2021/09/14 10:50:55;;;;;;;20.88;14.25;;;;;;;24.19;50.76;101479.41;5046256;28;20036;-47
2021/09/14 10:53:29;;;;;;;17.00;12.98;;;;;;;24.48;49.94;101475.75;5067971;28;20417;-51
2021/09/14 10:55:57;;;;;;;16.85;12.77;;;;;;;24.63;49.83;101472.56;5067248;28;20032;-50
2021/09/14 10:58:23;;;;;;;15.73;12.20;;;;;;;24.95;51.63;101466.94;5068677;28;20056;-50
2021/09/14 11:00:49;;;;;;;22.17;13.02;;;;;;;24.81;48.80;101469.25;5070367;28;20052;-47
2021/09/14 11:03:17;;;;;;;17.98;12.10;;;;;;;25.00;47.04;101458.81;5045622;28;20027;-48
2021/09/14 11:05:47;;;;;;;16.92;12.90;;;;;;;24.96;48.13;101462.47;5069985;28;20505;-48
2021/09/14 11:08:13;;;;;;;16.98;13.10;;;;;;;25.23;48.78;101460.59;5049368;28;20032;-48
2021/09/14 11:10:43;;;;;;;18.65;12.25;;;;;;;25.46;46.98;101452.56;5068707;28;20059;-51
2021/09/14 11:13:09;;;;;;;19.30;13.80;;;;;;;25.64;47.72;101451.88;5073998;28;20028;-47
2021/09/14 11:15:35;;;;;;;18.45;13.15;;;;;;;25.46;46.90;101441.88;5070542;28;20472;-49
2021/09/14 11:18:01;;;;;;;17.77;12.07;;;;;;;25.74;46.69;101439.88;5070996;28;20465;-50
2021/09/14 11:20:29;;;;;;;20.80;13.93;;;;;;;25.26;47.58;101433.78;5067664;28;20172;-49
2021/09/14 11:22:55;;;;;;;17.75;11.52;;;;;;;25.68;47.24;101428.56;5046355;28;20546;-48
2021/09/14 11:25:23;;;;;;;18.30;12.93;;;;;;;25.49;46.30;101433.78;5066898;28;20060;-50
2021/09/14 11:28:09;;;;;;;17.02;13.32;;;;;;;25.14;47.74;101439.59;5048667;28;20510;-49
2021/09/14 11:30:35;;;;;;;21.90;13.73;;;;;;;25.27;47.48;101439.06;5066208;28;20036;-51
2021/09/14 11:33:02;;;;;;;20.63;14.02;;;;;;;25.22;47.80;101430.38;5051806;28;20012;-51
2021/09/14 11:35:29;;;;;;;17.77;13.52;;;;;;;25.25;49.58;101446.25;5069454;28;20032;-51
2021/09/14 11:37:58;;;;;;;21.05;14.10;;;;;;;25.33;48.53;101433.50;5064440;28;20476;-53
2021/09/14 11:40:24;;;;;;;21.40;14.13;;;;;;;25.22;47.56;101434.84;5072894;28;20550;-50
2021/09/14 11:42:57;;;;;;;18.15;13.77;;;;;;;25.23;48.64;101428.56;5065634;28;20027;-51
2021/09/14 11:45:27;;;;;;;23.70;14.98;;;;;;;24.90;48.26;101436.03;5064190;28;20514;-49
2021/09/14 11:47:53;;;;;;;19.08;14.10;;;;;;;25.05;48.69;101428.34;5071173;28;20028;-50
2021/09/14 11:50:26;;;;;;;20.67;13.63;;;;;;;24.82;49.48;101430.97;5068338;28;20036;-49
2021/09/14 11:53:06;;;;;;;18.92;14.60;;;;;;;24.93;48.44;101412.81;5071533;28;20044;-51
2021/09/14 11:55:33;;;;;;;18.33;12.82;;;;;;;25.34;49.58;101416.56;5065071;28;20054;-48
2021/09/14 11:57:59;;;;;;;19.27;13.63;;;;;;;25.16;48.46;101422.59;5067770;28;20050;-51
2021/09/14 12:00:42;;;;;;;21.52;14.30;;;;;;;25.21;48.18;101415.28;5049398;28;20555;-49
2021/09/14 12:03:08;;;;;;;21.98;14.32;;;;;;;25.13;48.77;101416.53;5065716;28;20455;-48